Gibson, Missouri
Current Conditions -  °F | °C
As of 6:53 PM on Friday 28 Nov 2014 (Local Time) from KPOF Reporting Station
Clear Clear  
Wind Chill: 38°   Ceiling: Unl
Heat Index: 43°   Visibility: 10mi
Dew Point: 32°   Wind: 8mph
Humidity: 65%   Direction: 180°S
Pressure: 30.04"   Gusts: NA
Location:  36.44°N, 90.03°W
Report Text: KPOF 290053Z AUTO 18007KT 10SM CLR 06/00 A3004 RMK AO2 SLP178 T00610000
Loading
Personal Weather Stations






























Interactive Weather Map New forecast layout! Learn more

10-Day Weather Forecast

Advertisements
Track Severe Weather on mobile